createdAt,value
2023-01-13T00:01:25.588Z,25.30
2023-01-13T00:04:02.006Z,25.30
2023-01-13T00:06:40.014Z,25.30
2023-01-13T00:09:18.995Z,25.30
2023-01-13T00:11:54.620Z,25.20
2023-01-13T00:14:31.874Z,25.30
2023-01-13T00:17:09.954Z,25.20
2023-01-13T00:19:46.330Z,25.30
2023-01-13T00:22:27.182Z,25.30
2023-01-13T00:25:03.432Z,25.30
2023-01-13T00:27:39.479Z,25.30
2023-01-13T00:30:17.493Z,25.40
2023-01-13T00:32:53.188Z,25.60
2023-01-13T00:35:28.591Z,25.80
2023-01-13T00:38:08.148Z,25.90
2023-01-13T00:40:44.501Z,26.00
2023-01-13T00:43:27.429Z,25.90
2023-01-13T00:46:03.918Z,25.80
2023-01-13T00:48:40.593Z,25.70
2023-01-13T00:51:19.685Z,25.70
2023-01-13T00:53:57.582Z,25.70
2023-01-13T00:56:41.337Z,25.70
2023-01-13T00:59:18.080Z,25.60
2023-01-13T01:01:54.854Z,25.70
2023-01-13T01:04:30.465Z,25.80
2023-01-13T01:07:06.359Z,25.80
2023-01-13T01:09:44.090Z,26.00
2023-01-13T01:12:20.314Z,26.10
2023-01-13T01:14:55.831Z,26.20
2023-01-13T01:17:33.206Z,26.20
2023-01-13T01:20:10.306Z,26.30
2023-01-13T01:22:46.360Z,26.30
2023-01-13T01:25:24.116Z,26.20
2023-01-13T01:28:00.348Z,26.10
2023-01-13T01:30:36.051Z,26.00
2023-01-13T01:33:12.839Z,26.00
2023-01-13T01:35:48.366Z,26.10
2023-01-13T01:38:25.231Z,26.20
2023-01-13T01:41:02.963Z,26.30
2023-01-13T01:44:08.751Z,26.50
2023-01-13T01:46:47.292Z,26.50
2023-01-13T01:49:26.029Z,26.40
2023-01-13T01:52:07.216Z,26.50
2023-01-13T04:52:58.460Z,25.20
2023-01-13T05:22:32.678Z,25.10
2023-01-13T05:25:26.929Z,25.30
2023-01-13T06:04:46.716Z,25.40
2023-01-13T06:17:44.640Z,25.10
2023-01-13T06:20:21.542Z,25.00
2023-01-13T06:22:58.775Z,25.00
2023-01-13T06:25:44.462Z,25.10
2023-01-13T06:28:20.241Z,25.00
2023-01-13T06:31:01.498Z,24.90
2023-01-13T06:33:41.605Z,24.90
2023-01-13T06:36:21.224Z,24.90
2023-01-13T06:39:00.338Z,25.30
2023-01-13T06:41:54.334Z,24.80
2023-01-13T06:44:30.405Z,24.80
2023-01-13T06:47:08.463Z,24.70
2023-01-13T07:18:38.808Z,24.80
2023-01-13T07:21:20.477Z,24.60
2023-01-13T07:23:58.474Z,24.50
2023-01-13T07:26:38.922Z,24.60
2023-01-13T07:29:15.263Z,24.60
2023-01-13T07:31:50.761Z,24.60
2023-01-13T07:34:29.425Z,24.50
2023-01-13T07:37:05.659Z,24.60
2023-01-13T07:39:43.322Z,24.60
2023-01-13T07:42:35.818Z,24.60
2023-01-13T08:11:14.277Z,24.70
2023-01-13T08:13:51.015Z,24.60
2023-01-13T08:16:27.704Z,24.40
2023-01-13T08:19:04.419Z,24.40
2023-01-13T08:21:42.537Z,24.40
2023-01-13T08:24:18.446Z,24.30
2023-01-13T08:26:54.140Z,24.30
2023-01-13T08:29:30.320Z,24.30
2023-01-13T08:32:06.128Z,24.30
2023-01-13T08:34:42.718Z,24.30
2023-01-13T08:37:20.606Z,24.20
2023-01-13T08:39:56.544Z,24.30
2023-01-13T08:42:33.006Z,24.20
2023-01-13T08:45:10.101Z,24.30
2023-01-13T08:47:45.940Z,24.20
2023-01-13T08:50:25.262Z,24.30
2023-01-13T08:53:03.485Z,24.20
2023-01-13T08:55:39.042Z,24.30
2023-01-13T08:58:16.056Z,24.20
2023-01-13T09:00:52.697Z,24.30
2023-01-13T09:03:28.817Z,24.20
2023-01-13T09:06:04.496Z,24.30
2023-01-13T09:08:42.517Z,24.30
2023-01-13T09:11:39.920Z,24.20
2023-01-13T09:14:15.729Z,24.30
2023-01-13T09:16:52.140Z,24.20
2023-01-13T09:19:28.484Z,24.10
2023-01-13T09:22:04.098Z,24.20
2023-01-13T09:24:42.062Z,24.10
2023-01-13T09:27:18.333Z,24.10
2023-01-13T09:29:54.309Z,24.10
2023-01-13T09:32:30.588Z,24.10
2023-01-13T09:35:05.537Z,24.00
2023-01-13T09:37:42.723Z,24.10
2023-01-13T09:40:24.424Z,24.30
2023-01-13T09:43:18.914Z,24.10
2023-01-13T09:45:59.902Z,24.10
2023-01-13T09:48:53.420Z,24.10
2023-01-13T09:51:35.642Z,24.10
2023-01-13T09:54:21.818Z,24.00
2023-01-13T09:57:00.126Z,24.00
2023-01-13T09:59:38.591Z,23.90
2023-01-13T10:02:44.039Z,23.90
2023-01-13T10:05:27.148Z,23.80
2023-01-13T10:08:07.233Z,23.90
2023-01-13T10:10:47.586Z,23.90
2023-01-13T10:13:25.558Z,23.90
2023-01-13T10:16:20.418Z,23.90
2023-01-13T10:19:11.214Z,23.90
2023-01-13T10:22:32.809Z,23.90
2023-01-13T10:25:22.192Z,24.00
2023-01-13T10:27:59.980Z,23.90
2023-01-13T10:30:41.841Z,23.90
2023-01-13T10:33:19.728Z,23.90
2023-01-13T10:36:00.907Z,23.80
2023-01-13T10:38:43.118Z,23.80
2023-01-13T10:41:29.001Z,23.80
2023-01-13T10:44:09.428Z,23.80
2023-01-13T10:46:58.641Z,23.80
2023-01-13T10:49:38.000Z,23.80
2023-01-13T10:55:10.084Z,23.90
2023-01-13T10:57:45.484Z,23.90
2023-01-13T11:03:29.776Z,23.90
2023-01-13T11:06:07.232Z,23.90
2023-01-13T11:08:49.350Z,23.80
2023-01-13T11:22:28.074Z,23.80
2023-01-13T11:25:07.280Z,23.80
2023-01-13T11:27:48.770Z,23.80
2023-01-13T11:30:33.891Z,23.90
2023-01-13T11:33:33.879Z,23.80
2023-01-13T11:36:18.872Z,23.80
2023-01-13T11:38:58.874Z,23.90
2023-01-13T11:41:44.502Z,23.80
2023-01-13T11:44:24.760Z,23.90
2023-01-13T12:06:29.740Z,23.80
2023-01-13T12:42:18.980Z,23.90
2023-01-13T12:50:45.725Z,23.80
2023-01-13T12:53:40.816Z,23.70
2023-01-13T12:56:46.950Z,23.70
2023-01-13T13:00:13.461Z,23.70
2023-01-13T13:03:11.564Z,23.70
2023-01-13T13:06:02.806Z,23.70
2023-01-13T13:09:04.832Z,23.80
2023-01-13T13:12:04.943Z,23.80
2023-01-13T13:15:09.517Z,23.90
2023-01-13T13:17:49.639Z,23.80
2023-01-13T13:26:52.867Z,23.80
2023-01-13T13:29:51.198Z,23.60
2023-01-13T13:35:29.996Z,23.80
2023-01-13T13:44:20.218Z,23.60
2023-01-13T13:49:46.594Z,23.60
2023-01-13T13:57:54.833Z,23.60
2023-01-13T14:00:33.201Z,23.60
2023-01-13T14:03:11.652Z,23.60
2023-01-13T14:05:59.097Z,23.60
2023-01-13T14:08:35.888Z,23.70
2023-01-13T14:11:31.654Z,23.70
2023-01-13T14:30:11.676Z,23.90
2023-01-13T14:35:26.015Z,23.70
2023-01-13T14:40:50.369Z,23.50
2023-01-13T14:43:28.932Z,23.60
2023-01-13T14:46:06.821Z,23.60
2023-01-13T14:48:45.063Z,23.50
2023-01-13T14:51:28.115Z,23.50
2023-01-13T14:54:07.306Z,23.50
2023-01-13T14:56:55.549Z,23.50
2023-01-13T14:59:53.368Z,23.50
2023-01-13T15:02:44.605Z,23.60
2023-01-13T15:05:51.885Z,23.60
2023-01-13T15:24:34.955Z,23.50
2023-01-13T15:27:23.144Z,23.60
2023-01-13T15:29:58.487Z,23.60
2023-01-13T15:32:34.044Z,23.60
2023-01-13T15:35:10.354Z,23.60
2023-01-13T15:37:46.952Z,23.70
2023-01-13T15:40:35.516Z,23.70
2023-01-13T15:43:34.918Z,23.70
2023-01-13T15:49:11.392Z,23.70
2023-01-13T15:51:47.034Z,23.70
2023-01-13T15:54:27.491Z,23.70
2023-01-13T15:57:03.296Z,23.70
2023-01-13T15:59:41.683Z,23.70
2023-01-13T16:02:20.037Z,23.70
2023-01-13T16:07:31.385Z,23.50
2023-01-13T16:10:08.103Z,23.60
2023-01-13T16:12:43.997Z,23.60
2023-01-13T16:15:23.996Z,23.60
2023-01-13T16:18:05.249Z,23.60
2023-01-13T16:20:41.752Z,23.60
2023-01-13T16:23:20.242Z,23.50
2023-01-13T16:28:34.129Z,23.80
2023-01-13T16:31:23.695Z,23.60
2023-01-13T16:33:59.475Z,23.60
2023-01-13T16:36:39.485Z,23.50
2023-01-13T16:39:26.709Z,23.60
2023-01-13T16:42:05.285Z,23.60
2023-01-13T16:44:41.277Z,23.50
2023-01-13T16:47:21.779Z,23.50
2023-01-13T16:50:06.340Z,23.50
2023-01-13T16:52:42.997Z,23.50
2023-01-13T16:55:18.592Z,23.50
2023-01-13T16:57:56.191Z,23.60
2023-01-13T17:00:32.242Z,23.50
2023-01-13T17:03:10.603Z,23.50
2023-01-13T17:05:47.335Z,23.50
2023-01-13T17:08:23.323Z,23.50
2023-01-13T17:10:58.896Z,23.60
2023-01-13T17:13:35.523Z,23.60
2023-01-13T17:16:18.342Z,23.60
2023-01-13T17:18:56.229Z,23.60
2023-01-13T17:21:31.804Z,23.60
2023-01-13T17:24:09.628Z,23.50
2023-01-13T17:26:48.611Z,23.50
2023-01-13T17:29:26.845Z,23.60
2023-01-13T17:32:03.201Z,23.60
2023-01-13T17:34:41.893Z,23.50
2023-01-13T17:37:18.541Z,23.60
2023-01-13T17:39:55.294Z,23.50
2023-01-13T17:42:31.380Z,23.50
2023-01-13T17:45:08.684Z,23.60
2023-01-13T17:47:46.074Z,23.60
2023-01-13T17:50:25.179Z,23.60
2023-01-13T17:53:00.691Z,23.60
2023-01-13T17:55:37.151Z,23.60
2023-01-13T17:58:12.732Z,23.60
2023-01-13T18:00:48.497Z,23.60
2023-01-13T18:03:24.829Z,23.60
2023-01-13T18:06:08.965Z,23.60
2023-01-13T18:08:44.376Z,23.60
2023-01-13T18:11:21.610Z,23.60
2023-01-13T18:13:59.005Z,23.50
2023-01-13T18:16:36.310Z,23.50
2023-01-13T18:19:28.074Z,23.60
2023-01-13T18:25:11.855Z,23.50
2023-01-13T18:30:23.640Z,23.30
2023-01-13T18:35:34.113Z,23.30
2023-01-13T18:38:13.102Z,23.30
2023-01-13T18:40:49.905Z,23.30
2023-01-13T18:43:24.098Z,23.30
2023-01-13T18:45:59.594Z,23.20
2023-01-13T18:48:37.195Z,23.10
2023-01-13T18:53:54.360Z,23.10
2023-01-13T18:56:29.821Z,23.10
2023-01-13T18:59:06.411Z,23.10
2023-01-13T19:01:42.033Z,23.10
2023-01-13T19:04:21.469Z,23.10
2023-01-13T19:07:02.097Z,23.00
2023-01-13T19:09:40.635Z,23.10
2023-01-13T19:12:18.030Z,23.10
2023-01-13T19:14:53.619Z,23.00
2023-01-13T19:17:30.755Z,23.00
2023-01-13T19:20:08.471Z,23.10
2023-01-13T19:22:44.159Z,23.00
2023-01-13T19:25:21.702Z,23.00
2023-01-13T19:28:02.867Z,23.00
2023-01-13T19:30:41.550Z,22.60
2023-01-13T19:33:16.983Z,22.90
2023-01-13T19:35:56.381Z,22.90
2023-01-13T19:38:32.503Z,23.00
2023-01-13T19:41:35.577Z,23.00
2023-01-13T19:44:27.273Z,22.90
2023-01-13T19:47:02.852Z,23.00
2023-01-13T19:49:38.423Z,23.00
2023-01-13T19:52:15.003Z,23.00
2023-01-13T19:54:51.346Z,23.00
2023-01-13T19:57:29.556Z,23.00
2023-01-13T20:00:05.847Z,23.00
2023-01-13T20:02:50.923Z,23.00
2023-01-13T20:05:27.999Z,23.00
2023-01-13T20:08:04.164Z,23.00
2023-01-13T20:10:39.660Z,23.10
2023-01-13T20:13:18.051Z,23.10
2023-01-13T20:15:56.272Z,23.10
2023-01-13T20:18:37.388Z,23.20
2023-01-13T20:21:14.002Z,23.20
2023-01-13T20:23:53.656Z,23.20
2023-01-13T20:26:29.069Z,23.30
2023-01-13T20:29:06.618Z,23.20
2023-01-13T20:31:42.243Z,23.20
2023-01-13T20:34:19.882Z,23.20
2023-01-13T20:36:56.057Z,23.20
2023-01-13T20:39:32.615Z,23.20
2023-01-13T20:42:24.059Z,23.30
2023-01-13T20:45:04.073Z,23.20
2023-01-13T20:47:39.465Z,23.30
2023-01-13T20:50:16.015Z,23.30
2023-01-13T20:52:54.376Z,23.30
2023-01-13T20:55:30.698Z,23.30
2023-01-13T20:58:06.454Z,23.30
2023-01-13T21:00:43.781Z,23.40
2023-01-13T21:03:19.187Z,23.30
2023-01-13T21:05:55.961Z,23.30
2023-01-13T21:08:32.313Z,23.40
2023-01-13T21:11:12.188Z,23.40
2023-01-13T21:24:32.044Z,23.40
2023-01-13T21:43:12.571Z,22.80
2023-01-13T21:46:05.482Z,22.70
2023-01-13T21:48:44.021Z,22.70
2023-01-13T21:51:19.676Z,22.70
2023-01-13T21:53:55.432Z,22.70
2023-01-13T21:56:31.269Z,22.60
2023-01-13T21:59:07.518Z,22.50
2023-01-13T22:02:00.743Z,22.50
2023-01-13T22:04:40.310Z,22.50
2023-01-13T22:07:15.678Z,22.50
2023-01-13T22:09:56.073Z,22.60
2023-01-13T22:12:31.969Z,22.60
2023-01-13T22:15:08.125Z,22.70
2023-01-13T22:17:44.215Z,22.70
2023-01-13T22:20:23.167Z,22.70
2023-01-13T22:22:58.697Z,22.70
2023-01-13T22:25:35.144Z,22.70
2023-01-13T22:28:11.024Z,22.70
2023-01-13T22:30:47.930Z,22.70
2023-01-13T22:33:23.363Z,22.80
2023-01-13T22:36:02.690Z,22.60
2023-01-13T22:38:38.169Z,22.80
2023-01-13T22:41:15.863Z,22.90
2023-01-13T22:43:51.387Z,22.90
2023-01-13T22:46:27.162Z,22.90
2023-01-13T22:49:02.539Z,22.90
2023-01-13T22:51:41.002Z,23.00
2023-01-13T22:54:17.293Z,23.10
2023-01-13T22:56:53.528Z,23.20
2023-01-13T22:59:29.098Z,23.30
2023-01-13T23:02:09.027Z,23.30
2023-01-13T23:04:44.475Z,23.30
2023-01-13T23:07:22.013Z,23.30
2023-01-13T23:09:57.887Z,23.20
2023-01-13T23:12:34.561Z,23.10
2023-01-13T23:15:12.816Z,23.10
2023-01-13T23:17:52.806Z,23.20
2023-01-13T23:20:28.407Z,23.10
2023-01-13T23:23:06.828Z,23.10
2023-01-13T23:25:42.369Z,23.20
2023-01-13T23:28:18.834Z,23.30
2023-01-13T23:30:54.361Z,23.50
2023-01-13T23:33:30.743Z,23.60
2023-01-13T23:36:07.611Z,23.60
2023-01-13T23:38:45.459Z,23.70
2023-01-13T23:41:22.464Z,23.90
2023-01-13T23:44:00.807Z,23.90
2023-01-13T23:46:37.049Z,24.00
2023-01-13T23:49:12.976Z,23.90
2023-01-13T23:51:48.641Z,23.90
2023-01-13T23:54:27.185Z,23.80
2023-01-13T23:57:02.608Z,23.80
